createdAt,value
2019-05-09T00:00:44.377Z,0.30
2019-05-09T00:01:44.406Z,0.30
2019-05-09T00:02:44.398Z,0.30
2019-05-09T00:03:44.545Z,0.30
2019-05-09T00:04:44.333Z,0.30
2019-05-09T00:05:44.319Z,0.30
2019-05-09T00:06:44.308Z,0.20
2019-05-09T00:07:44.306Z,0.20
2019-05-09T00:08:44.430Z,0.30
2019-05-09T00:09:44.277Z,0.30
2019-05-09T00:10:44.928Z,0.30
2019-05-09T00:11:44.253Z,0.30
2019-05-09T00:12:44.259Z,0.30
2019-05-09T00:13:44.234Z,0.30
2019-05-09T00:14:44.224Z,0.70
2019-05-09T00:15:44.208Z,0.30
2019-05-09T00:16:44.203Z,0.20
2019-05-09T00:17:44.186Z,0.30
2019-05-09T00:18:55.441Z,0.30
2019-05-09T00:19:44.166Z,0.30
2019-05-09T00:20:44.156Z,0.30
2019-05-09T00:21:44.148Z,0.30
2019-05-09T00:22:44.139Z,0.20
2019-05-09T00:23:44.180Z,0.30
2019-05-09T00:24:44.834Z,0.30
2019-05-09T00:25:44.101Z,0.20
2019-05-09T00:26:44.404Z,0.30
2019-05-09T00:27:44.077Z,0.20
2019-05-09T00:28:44.215Z,0.40
2019-05-09T00:29:44.059Z,0.30
2019-05-09T00:30:44.087Z,0.30
2019-05-09T00:31:44.035Z,0.30
2019-05-09T00:32:44.029Z,0.60
2019-05-09T00:33:46.128Z,0.30
2019-05-09T00:34:44.229Z,0.30
2019-05-09T00:35:44.332Z,0.70
2019-05-09T00:36:44.023Z,0.30
2019-05-09T00:37:43.968Z,0.40
2019-05-09T00:38:43.959Z,0.20
2019-05-09T00:39:43.945Z,0.20
2019-05-09T00:40:55.287Z,0.30
2019-05-09T00:41:44.963Z,0.40
2019-05-09T00:42:44.171Z,0.30
2019-05-09T00:43:43.899Z,0.30
2019-05-09T00:44:43.893Z,0.30
2019-05-09T00:45:43.967Z,0.40
2019-05-09T00:46:43.864Z,0.30
2019-05-09T00:47:43.892Z,0.30
2019-05-09T00:48:43.964Z,0.30
2019-05-09T00:49:54.253Z,0.30
2019-05-09T00:50:43.848Z,0.30
2019-05-09T00:51:43.820Z,0.30
2019-05-09T00:52:43.799Z,0.30
2019-05-09T00:53:44.413Z,0.30
2019-05-09T00:54:43.889Z,0.30
2019-05-09T00:55:43.790Z,0.20
2019-05-09T00:56:43.755Z,0.30
2019-05-09T00:57:44.043Z,0.30
2019-05-09T00:58:44.164Z,0.30
2019-05-09T00:59:44.647Z,0.60
2019-05-09T01:00:44.042Z,0.40
2019-05-09T01:01:43.841Z,0.40
2019-05-09T01:02:43.695Z,0.30
2019-05-09T01:03:43.682Z,0.40
2019-05-09T01:04:43.824Z,0.30
2019-05-09T01:05:43.813Z,0.30
2019-05-09T01:06:43.646Z,0.30
2019-05-09T01:07:43.634Z,0.30
2019-05-09T01:08:44.258Z,0.20
2019-05-09T01:09:43.982Z,0.30
2019-05-09T01:10:43.768Z,0.30
2019-05-09T01:11:44.057Z,0.90
2019-05-09T01:12:43.628Z,0.40
2019-05-09T01:13:43.607Z,0.30
2019-05-09T01:14:43.557Z,0.30
2019-05-09T01:15:44.095Z,0.40
2019-05-09T01:16:44.146Z,0.30
2019-05-09T01:17:44.137Z,0.30
2019-05-09T01:18:43.814Z,0.40
2019-05-09T01:19:43.508Z,0.40
2019-05-09T01:20:55.019Z,0.40
2019-05-09T01:21:43.947Z,0.40
2019-05-09T01:22:43.665Z,0.40
2019-05-09T01:23:43.745Z,0.30
2019-05-09T01:24:44.280Z,0.30
2019-05-09T01:25:43.646Z,0.40
2019-05-09T01:26:43.653Z,0.30
2019-05-09T01:27:43.433Z,0.20
2019-05-09T01:28:44.205Z,0.30
2019-05-09T01:29:43.932Z,0.20
2019-05-09T01:30:43.957Z,0.30
2019-05-09T01:31:43.735Z,0.30
2019-05-09T01:32:43.444Z,0.30
2019-05-09T01:33:43.911Z,0.30
2019-05-09T01:34:43.742Z,0.30
2019-05-09T01:35:43.501Z,0.20
2019-05-09T01:36:43.423Z,0.20
2019-05-09T01:37:43.510Z,0.30
2019-05-09T01:38:43.459Z,0.30
2019-05-09T01:39:44.077Z,0.30
2019-05-09T01:40:43.874Z,0.20
2019-05-09T01:41:43.693Z,0.30
2019-05-09T01:42:43.339Z,0.30
2019-05-09T01:43:44.252Z,0.30
2019-05-09T01:44:44.039Z,0.40
2019-05-09T01:45:46.599Z,0.30
2019-05-09T01:46:43.648Z,0.30
2019-05-09T01:47:43.198Z,0.30
2019-05-09T01:48:43.260Z,0.30
2019-05-09T01:49:43.290Z,0.30
2019-05-09T01:50:43.280Z,0.30
2019-05-09T01:51:53.868Z,0.30
2019-05-09T01:52:44.015Z,0.30
2019-05-09T01:53:43.753Z,0.40
2019-05-09T01:54:43.632Z,0.30
2019-05-09T01:55:43.286Z,0.40
2019-05-09T01:56:43.196Z,0.30
2019-05-09T01:57:47.244Z,0.30
2019-05-09T01:58:43.260Z,0.30
2019-05-09T01:59:44.388Z,0.30
2019-05-09T02:00:43.643Z,0.30
2019-05-09T02:01:43.527Z,0.30
2019-05-09T02:02:43.393Z,0.40
2019-05-09T02:03:44.265Z,0.20
2019-05-09T02:04:43.939Z,0.30
2019-05-09T02:05:43.530Z,0.30
2019-05-09T02:06:44.038Z,0.40
2019-05-09T02:07:43.858Z,0.30
2019-05-09T02:08:43.804Z,0.30
2019-05-09T02:09:43.505Z,0.30
2019-05-09T02:10:44.202Z,0.20
2019-05-09T02:11:45.511Z,0.30
2019-05-09T02:12:43.147Z,0.30
2019-05-09T02:13:44.237Z,0.30
2019-05-09T02:14:43.717Z,0.30
2019-05-09T02:15:43.436Z,0.40
2019-05-09T02:16:43.289Z,0.30
2019-05-09T02:17:55.809Z,0.40
2019-05-09T02:18:44.135Z,0.40
2019-05-09T02:19:43.981Z,0.30
2019-05-09T02:20:43.908Z,0.30
2019-05-09T02:21:43.700Z,0.40
2019-05-09T02:22:55.099Z,1.30
2019-05-09T02:23:43.235Z,0.30
2019-05-09T02:24:44.088Z,0.30
2019-05-09T02:25:43.846Z,0.40
2019-05-09T02:26:43.936Z,0.30
2019-05-09T02:27:43.703Z,0.40
2019-05-09T02:28:43.406Z,0.30
2019-05-09T02:29:43.999Z,0.40
2019-05-09T02:30:45.050Z,0.30
2019-05-09T02:31:44.550Z,0.30
2019-05-09T02:32:45.047Z,0.30
2019-05-09T02:33:45.462Z,0.70
2019-05-09T02:34:44.314Z,0.40
2019-05-09T02:35:52.849Z,0.20
2019-05-09T02:36:43.670Z,0.30
2019-05-09T02:37:42.662Z,0.30
2019-05-09T02:38:42.649Z,0.40
2019-05-09T02:39:42.643Z,0.30
2019-05-09T02:40:42.624Z,0.20
2019-05-09T02:41:59.518Z,0.30
2019-05-09T02:42:43.647Z,0.30
2019-05-09T02:43:42.594Z,0.30
2019-05-09T02:44:42.592Z,0.30
2019-05-09T02:45:42.574Z,0.30
2019-05-09T02:46:42.578Z,0.30
2019-05-09T02:47:42.549Z,0.20
2019-05-09T02:48:42.578Z,0.30
2019-05-09T02:49:42.529Z,0.30
2019-05-09T02:50:42.518Z,0.30
2019-05-09T02:51:42.510Z,0.30
2019-05-09T02:52:42.499Z,0.40
2019-05-09T02:53:53.152Z,0.40
2019-05-09T02:54:42.477Z,0.30
2019-05-09T02:55:42.466Z,0.20
2019-05-09T02:56:42.451Z,0.40
2019-05-09T02:57:42.445Z,0.30
2019-05-09T02:58:42.433Z,0.30
2019-05-09T02:59:42.437Z,0.30
2019-05-09T03:00:42.413Z,1.10
2019-05-09T03:01:42.404Z,1.00
2019-05-09T03:02:42.388Z,2.10
2019-05-09T03:03:42.388Z,0.40
2019-05-09T03:04:42.368Z,1.60
2019-05-09T03:05:42.366Z,4.40
2019-05-09T03:06:42.350Z,9.50
2019-05-09T03:07:42.336Z,6.80
2019-05-09T03:08:42.325Z,6.80
2019-05-09T03:09:42.316Z,3.20
2019-05-09T03:10:42.334Z,4.60
2019-05-09T03:11:42.288Z,4.30
2019-05-09T03:12:42.317Z,3.10
2019-05-09T03:13:42.269Z,5.50
2019-05-09T03:14:42.262Z,3.40
2019-05-09T03:15:42.246Z,4.00
2019-05-09T03:16:42.279Z,2.20
2019-05-09T03:17:42.228Z,3.00
2019-05-09T03:18:42.213Z,3.50
2019-05-09T03:19:42.206Z,1.30
2019-05-09T03:20:42.187Z,4.70
2019-05-09T03:21:42.188Z,2.30
2019-05-09T03:22:42.206Z,4.50
2019-05-09T03:23:42.158Z,3.40
2019-05-09T03:24:52.439Z,0.50
2019-05-09T03:25:42.140Z,2.20
2019-05-09T03:26:42.127Z,2.50
2019-05-09T03:27:42.112Z,3.00
2019-05-09T03:28:42.143Z,1.60
2019-05-09T03:29:42.092Z,2.60
2019-05-09T03:30:42.085Z,2.40
2019-05-09T03:31:42.071Z,0.40
2019-05-09T03:32:42.070Z,3.60
2019-05-09T03:33:42.048Z,0.50
2019-05-09T03:34:42.043Z,1.70
2019-05-09T03:35:42.031Z,1.80
2019-05-09T03:36:42.013Z,1.20
2019-05-09T03:37:42.013Z,0.60
2019-05-09T03:38:41.997Z,1.00
2019-05-09T03:39:42.021Z,0.40
2019-05-09T03:40:41.967Z,4.80
2019-05-09T03:41:41.962Z,2.60
2019-05-09T03:42:43.737Z,1.40
2019-05-09T03:43:41.937Z,1.70
2019-05-09T03:44:41.923Z,0.30
2019-05-09T03:45:41.950Z,1.10
2019-05-09T03:46:41.901Z,1.90
2019-05-09T03:47:41.900Z,0.70
2019-05-09T03:48:41.893Z,1.60
2019-05-09T03:49:41.873Z,0.30
2019-05-09T03:50:41.862Z,1.70
2019-05-09T03:51:41.864Z,0.90
2019-05-09T03:52:41.839Z,0.30
2019-05-09T03:53:41.826Z,0.80
2019-05-09T03:54:41.812Z,1.10
2019-05-09T03:55:52.712Z,1.70
2019-05-09T03:56:41.840Z,1.90
2019-05-09T03:57:41.784Z,0.80
2019-05-09T03:58:41.772Z,0.80
2019-05-09T03:59:41.758Z,1.50
2019-05-09T04:00:41.747Z,0.20
2019-05-09T04:01:41.744Z,0.20
2019-05-09T04:02:41.766Z,0.40
2019-05-09T04:03:41.720Z,0.70
2019-05-09T04:04:41.712Z,1.10
2019-05-09T04:05:55.376Z,0.70
2019-05-09T04:06:42.689Z,0.80
2019-05-09T04:07:41.680Z,1.30
2019-05-09T04:08:41.703Z,0.30
2019-05-09T04:09:41.649Z,0.30
2019-05-09T04:10:41.643Z,0.30
2019-05-09T04:11:41.630Z,0.80
2019-05-09T04:12:52.831Z,0.70
2019-05-09T04:13:42.625Z,0.30
2019-05-09T04:14:41.598Z,0.30
2019-05-09T04:15:41.584Z,0.30
2019-05-09T04:16:41.575Z,0.40
2019-05-09T04:17:41.567Z,0.60
2019-05-09T04:18:41.568Z,0.40
2019-05-09T04:19:41.580Z,0.30
2019-05-09T04:20:41.536Z,0.40
2019-05-09T04:21:41.524Z,0.20
2019-05-09T04:22:41.514Z,0.40
2019-05-09T04:23:41.502Z,0.80
2019-05-09T04:24:41.491Z,0.30
2019-05-09T04:25:41.490Z,0.30
2019-05-09T04:26:53.693Z,0.30
2019-05-09T04:27:41.454Z,0.40
2019-05-09T04:28:41.449Z,0.40
2019-05-09T04:29:41.433Z,0.40
2019-05-09T04:30:41.463Z,0.70
2019-05-09T04:31:41.418Z,0.30
2019-05-09T04:32:41.402Z,0.30
2019-05-09T04:33:41.388Z,0.40
2019-05-09T04:34:41.386Z,0.30
2019-05-09T04:35:41.372Z,0.20
2019-05-09T04:36:41.402Z,0.30
2019-05-09T04:37:41.349Z,0.40
2019-05-09T04:38:41.941Z,0.30
2019-05-09T04:39:41.330Z,0.30
2019-05-09T04:40:44.864Z,0.40
2019-05-09T04:41:41.304Z,0.30
2019-05-09T04:42:44.434Z,0.30
2019-05-09T04:43:41.279Z,0.50
2019-05-09T04:44:41.274Z,0.30
2019-05-09T04:45:41.954Z,0.20
2019-05-09T04:46:41.247Z,0.20
2019-05-09T04:47:43.445Z,0.30
2019-05-09T04:48:41.247Z,0.30
2019-05-09T04:49:45.110Z,0.30
2019-05-09T04:50:41.205Z,0.30
2019-05-09T04:51:41.190Z,0.20
2019-05-09T04:52:41.220Z,0.40
2019-05-09T04:53:41.173Z,0.40
2019-05-09T04:54:41.163Z,0.30
2019-05-09T04:55:41.149Z,0.40
2019-05-09T04:56:41.137Z,0.40
2019-05-09T04:57:52.289Z,0.30
2019-05-09T04:58:41.118Z,0.30
2019-05-09T04:59:41.139Z,0.30
2019-05-09T05:00:41.098Z,0.30
2019-05-09T05:01:41.079Z,0.40
2019-05-09T05:02:41.078Z,0.30
2019-05-09T05:03:41.059Z,1.40
2019-05-09T05:04:41.048Z,0.40
2019-05-09T05:05:41.078Z,0.50
2019-05-09T05:06:41.027Z,0.30
2019-05-09T05:07:41.014Z,1.70
2019-05-09T05:08:41.000Z,1.80
2019-05-09T05:09:40.992Z,0.30
2019-05-09T05:10:40.979Z,0.70
2019-05-09T05:11:40.985Z,1.60
2019-05-09T05:12:40.957Z,2.80
2019-05-09T05:13:40.961Z,0.90
2019-05-09T05:14:40.933Z,0.60
2019-05-09T05:15:40.924Z,2.40
2019-05-09T05:16:40.964Z,4.10
2019-05-09T05:17:40.904Z,1.50
2019-05-09T05:18:40.890Z,2.70
2019-05-09T05:19:40.877Z,3.80
2019-05-09T05:20:40.865Z,3.20
2019-05-09T05:21:40.856Z,4.70
2019-05-09T05:22:40.892Z,0.70
2019-05-09T05:23:40.838Z,2.10
2019-05-09T05:24:40.828Z,1.70
2019-05-09T05:25:40.818Z,3.60
2019-05-09T05:26:40.806Z,1.90
2019-05-09T05:27:40.793Z,7.00
2019-05-09T05:28:50.858Z,3.10
2019-05-09T05:29:40.768Z,6.40
2019-05-09T05:30:40.761Z,1.30
2019-05-09T05:31:40.747Z,1.30
2019-05-09T05:32:40.740Z,6.30
2019-05-09T05:33:40.725Z,6.50
2019-05-09T05:34:40.730Z,3.50
2019-05-09T05:35:40.711Z,7.00
2019-05-09T05:36:40.696Z,1.40
2019-05-09T05:37:40.683Z,3.40
2019-05-09T05:38:40.676Z,2.60
2019-05-09T05:39:40.680Z,4.10
2019-05-09T05:40:45.389Z,3.90
2019-05-09T05:41:41.639Z,3.00
2019-05-09T05:42:40.632Z,2.30
2019-05-09T05:43:44.604Z,4.30
2019-05-09T05:44:40.608Z,4.50
2019-05-09T05:45:40.635Z,5.50
2019-05-09T05:46:40.586Z,2.90
2019-05-09T05:47:40.601Z,3.60
2019-05-09T05:48:40.562Z,4.80
2019-05-09T05:49:40.559Z,3.40
2019-05-09T05:50:40.540Z,5.50
2019-05-09T05:51:40.572Z,6.40
2019-05-09T05:52:40.519Z,8.10
2019-05-09T05:53:40.506Z,6.10
2019-05-09T05:54:40.498Z,3.40
2019-05-09T05:55:40.482Z,2.10
2019-05-09T05:56:40.566Z,3.50
2019-05-09T05:57:40.497Z,7.20
2019-05-09T05:58:40.460Z,1.90
2019-05-09T05:59:50.831Z,3.00
2019-05-09T06:00:40.431Z,4.00
2019-05-09T06:01:40.420Z,2.70
2019-05-09T06:02:40.411Z,4.00
2019-05-09T06:03:40.404Z,4.60
2019-05-09T06:04:40.390Z,2.40
2019-05-09T06:05:40.374Z,3.80
2019-05-09T06:06:40.363Z,5.70
2019-05-09T06:07:40.387Z,3.80
2019-05-09T06:08:40.341Z,6.40
2019-05-09T06:09:40.330Z,2.80
2019-05-09T06:10:40.316Z,5.20
2019-05-09T06:11:40.315Z,5.00
2019-05-09T06:12:40.296Z,4.60
2019-05-09T06:13:53.311Z,10.00
2019-05-09T06:14:41.270Z,6.00
2019-05-09T06:15:40.270Z,2.60
2019-05-09T06:16:40.257Z,5.20
2019-05-09T06:17:40.244Z,5.40
2019-05-09T06:18:40.227Z,7.30
2019-05-09T06:19:40.243Z,9.20
2019-05-09T06:20:40.210Z,6.60
2019-05-09T06:21:40.199Z,7.10
2019-05-09T06:22:40.187Z,12.60
2019-05-09T06:23:40.176Z,6.50
2019-05-09T06:24:40.195Z,5.70
2019-05-09T06:25:40.153Z,17.20
2019-05-09T06:26:40.143Z,8.50
2019-05-09T06:27:42.273Z,9.30
2019-05-09T06:28:40.127Z,3.80
2019-05-09T06:29:40.113Z,12.80
2019-05-09T06:30:50.407Z,15.40
2019-05-09T06:31:40.101Z,10.30
2019-05-09T06:32:40.092Z,3.40
2019-05-09T06:33:46.048Z,5.80
2019-05-09T06:34:42.171Z,8.60
2019-05-09T06:35:40.045Z,5.60
2019-05-09T06:36:40.026Z,4.10
2019-05-09T06:37:40.030Z,5.60
2019-05-09T06:38:40.010Z,4.70
2019-05-09T06:39:40.011Z,5.20
2019-05-09T06:40:39.990Z,10.80
2019-05-09T06:41:39.977Z,4.70
2019-05-09T06:42:40.032Z,3.60
2019-05-09T06:43:39.950Z,4.20
2019-05-09T06:44:39.946Z,4.30
2019-05-09T06:45:41.687Z,3.50
2019-05-09T06:46:39.924Z,1.80
2019-05-09T06:47:39.908Z,2.90
2019-05-09T06:48:39.914Z,2.50
2019-05-09T06:49:39.884Z,4.30
2019-05-09T06:50:39.874Z,2.00
2019-05-09T06:51:39.868Z,3.10
2019-05-09T06:52:39.853Z,1.50
2019-05-09T06:53:39.847Z,3.50
2019-05-09T06:54:41.806Z,1.10
2019-05-09T06:55:39.819Z,1.80
2019-05-09T06:56:39.807Z,3.30
2019-05-09T06:57:42.819Z,1.50
2019-05-09T06:58:39.786Z,0.70
2019-05-09T06:59:39.792Z,1.60
2019-05-09T07:00:39.781Z,2.60
2019-05-09T07:01:51.123Z,1.20
2019-05-09T07:02:39.741Z,0.60
2019-05-09T07:03:39.733Z,1.80
2019-05-09T07:04:39.719Z,1.50
2019-05-09T07:05:39.712Z,1.00
2019-05-09T07:06:39.708Z,1.80
2019-05-09T07:07:39.687Z,2.80
2019-05-09T07:08:39.726Z,2.80
2019-05-09T07:09:39.661Z,1.60
2019-05-09T07:10:39.654Z,4.90
2019-05-09T07:11:39.641Z,2.90
2019-05-09T07:12:39.630Z,1.20
2019-05-09T07:13:39.620Z,3.80
2019-05-09T07:14:41.874Z,1.20
2019-05-09T07:15:39.594Z,0.80
2019-05-09T07:16:39.629Z,2.40
2019-05-09T07:17:39.572Z,2.70
2019-05-09T07:18:39.563Z,3.50
2019-05-09T07:19:43.468Z,2.10
2019-05-09T07:20:39.541Z,8.50
2019-05-09T07:21:39.536Z,3.00
2019-05-09T07:22:39.623Z,1.90
2019-05-09T07:23:39.507Z,4.30
2019-05-09T07:24:39.497Z,2.50
2019-05-09T07:25:40.437Z,2.10
2019-05-09T07:26:39.472Z,2.50
2019-05-09T07:27:39.464Z,0.90
2019-05-09T07:28:39.463Z,2.50
2019-05-09T07:29:39.443Z,1.40
2019-05-09T07:30:39.429Z,0.80
2019-05-09T07:31:39.419Z,2.00
2019-05-09T07:32:50.127Z,2.50
2019-05-09T07:33:39.421Z,3.50
2019-05-09T07:34:39.389Z,2.30
2019-05-09T07:35:39.379Z,2.70
2019-05-09T07:36:39.367Z,1.40
2019-05-09T07:37:39.357Z,2.70
2019-05-09T07:38:39.345Z,1.00
2019-05-09T07:39:39.372Z,0.90
2019-05-09T07:40:39.326Z,3.30
2019-05-09T07:41:39.313Z,2.00
2019-05-09T07:42:39.302Z,5.50
2019-05-09T07:43:39.308Z,2.40
2019-05-09T07:44:48.801Z,1.20
2019-05-09T07:45:40.281Z,2.60
2019-05-09T07:46:39.250Z,0.60
2019-05-09T07:47:39.245Z,2.90
2019-05-09T07:48:39.234Z,1.30
2019-05-09T07:49:39.248Z,1.00
2019-05-09T07:50:39.213Z,2.20
2019-05-09T07:51:39.204Z,4.60
2019-05-09T07:52:39.189Z,2.40
2019-05-09T07:53:39.180Z,1.30
2019-05-09T07:54:39.176Z,3.10
2019-05-09T07:55:39.158Z,1.40
2019-05-09T07:56:39.146Z,1.00
2019-05-09T07:57:47.009Z,1.50
2019-05-09T07:58:40.116Z,1.00
2019-05-09T07:59:39.117Z,1.40
2019-05-09T08:00:39.100Z,3.10
2019-05-09T08:01:39.083Z,1.70
2019-05-09T08:02:39.084Z,1.40
2019-05-09T08:03:49.247Z,0.50
2019-05-09T08:04:39.049Z,4.40
2019-05-09T08:05:39.042Z,0.80
2019-05-09T08:06:39.033Z,3.30
2019-05-09T08:07:39.027Z,1.70
2019-05-09T08:08:39.039Z,2.60
2019-05-09T08:09:39.001Z,0.60
2019-05-09T08:10:38.981Z,0.40
2019-05-09T08:11:38.978Z,0.40
2019-05-09T08:12:39.113Z,0.90
2019-05-09T08:13:39.623Z,1.10
2019-05-09T08:14:38.987Z,0.50
2019-05-09T08:15:38.928Z,0.30
2019-05-09T08:16:38.915Z,0.90
2019-05-09T08:17:38.911Z,1.90
2019-05-09T08:18:38.892Z,0.40
2019-05-09T08:19:38.887Z,0.30
2019-05-09T08:20:40.711Z,0.60
2019-05-09T08:21:38.863Z,0.80
2019-05-09T08:22:41.100Z,1.50
2019-05-09T08:23:38.853Z,0.80
2019-05-09T08:24:38.829Z,0.30
2019-05-09T08:25:38.813Z,0.70
2019-05-09T08:26:39.644Z,0.40
2019-05-09T08:27:38.801Z,1.00
2019-05-09T08:28:39.259Z,0.40
2019-05-09T08:29:38.926Z,0.50
2019-05-09T08:30:40.415Z,0.70
2019-05-09T08:31:40.434Z,0.40
2019-05-09T08:32:38.771Z,0.60
2019-05-09T08:33:38.732Z,0.50
2019-05-09T08:34:50.736Z,0.40
2019-05-09T08:35:38.711Z,0.30
2019-05-09T08:36:38.703Z,0.30
2019-05-09T08:37:39.162Z,0.40
2019-05-09T08:38:39.282Z,0.40
2019-05-09T08:39:38.663Z,0.30
2019-05-09T08:40:38.723Z,0.30
2019-05-09T08:41:38.743Z,0.30
2019-05-09T08:42:38.632Z,0.30
2019-05-09T08:43:38.665Z,0.40
2019-05-09T08:44:41.960Z,0.30
2019-05-09T08:45:38.615Z,0.30
2019-05-09T08:46:38.583Z,0.40
2019-05-09T08:47:38.600Z,0.60
2019-05-09T08:48:38.571Z,0.40
2019-05-09T08:49:38.562Z,0.30
2019-05-09T08:50:39.136Z,0.30
2019-05-09T08:51:52.061Z,0.50
2019-05-09T08:52:39.525Z,0.40
2019-05-09T08:53:38.508Z,0.40
2019-05-09T08:54:38.587Z,0.30
2019-05-09T08:55:38.609Z,1.00
2019-05-09T08:56:38.819Z,1.00
2019-05-09T08:57:38.473Z,0.30
2019-05-09T08:58:38.459Z,0.90
2019-05-09T08:59:38.538Z,2.80
2019-05-09T09:00:39.178Z,1.60
2019-05-09T09:02:05.167Z,2.60
2019-05-09T09:02:39.412Z,2.80
2019-05-09T09:03:38.400Z,2.20
2019-05-09T09:04:38.631Z,0.70
2019-05-09T09:05:49.158Z,1.00
2019-05-09T09:06:39.109Z,1.70
2019-05-09T09:07:38.363Z,1.90
2019-05-09T09:08:38.347Z,0.90
2019-05-09T09:09:38.338Z,1.30
2019-05-09T09:10:38.727Z,1.40
2019-05-09T09:11:38.669Z,0.40
2019-05-09T09:12:38.642Z,1.90
2019-05-09T09:13:38.295Z,0.40
2019-05-09T09:14:39.617Z,0.40
2019-05-09T09:16:02.297Z,2.90
2019-05-09T09:16:41.873Z,4.50
2019-05-09T09:17:38.627Z,0.40
2019-05-09T09:18:38.881Z,2.20
2019-05-09T09:19:38.739Z,4.30
2019-05-09T09:20:38.358Z,2.10
2019-05-09T09:21:38.914Z,0.90
2019-05-09T09:22:38.198Z,0.60
2019-05-09T09:23:43.914Z,1.00
2019-05-09T09:24:39.166Z,0.80
2019-05-09T09:25:39.046Z,0.50
2019-05-09T09:26:38.320Z,0.30
2019-05-09T09:27:38.236Z,1.20
2019-05-09T09:28:38.186Z,1.50
2019-05-09T09:29:38.312Z,0.50
2019-05-09T09:30:38.938Z,0.30
2019-05-09T09:31:38.093Z,0.40
2019-05-09T09:32:38.877Z,0.50
2019-05-09T09:33:38.105Z,0.40
2019-05-09T09:34:38.235Z,0.50
2019-05-09T09:35:38.462Z,0.70
2019-05-09T09:36:50.107Z,0.90
2019-05-09T09:37:48.474Z,1.30
2019-05-09T09:38:39.023Z,1.40
2019-05-09T09:39:44.318Z,0.50
2019-05-09T09:40:39.003Z,1.10
2019-05-09T09:41:38.762Z,1.80
2019-05-09T09:42:39.697Z,0.50
2019-05-09T09:43:38.459Z,0.20
2019-05-09T09:44:39.241Z,1.00
2019-05-09T09:45:38.145Z,0.70
2019-05-09T09:46:37.928Z,0.50
2019-05-09T09:47:39.923Z,0.30
2019-05-09T09:48:38.931Z,0.50
2019-05-09T09:49:38.547Z,1.30
2019-05-09T09:50:38.458Z,0.40
2019-05-09T09:51:38.355Z,1.00
2019-05-09T09:52:38.538Z,0.40
2019-05-09T09:53:38.616Z,0.60
2019-05-09T09:54:38.666Z,1.50
2019-05-09T09:55:38.499Z,2.00
2019-05-09T09:56:38.606Z,1.70
2019-05-09T09:57:37.909Z,0.70
2019-05-09T09:58:38.021Z,0.50
2019-05-09T09:59:40.833Z,0.90
2019-05-09T10:00:38.212Z,1.80
2019-05-09T10:01:38.539Z,1.10
2019-05-09T10:02:37.937Z,1.60
2019-05-09T10:03:37.731Z,0.40
2019-05-09T10:04:37.723Z,0.50
2019-05-09T10:05:38.154Z,1.60
2019-05-09T10:06:38.822Z,0.60
2019-05-09T10:07:49.207Z,0.40
2019-05-09T10:08:39.598Z,2.50
2019-05-09T10:09:37.667Z,0.50
2019-05-09T10:10:37.656Z,3.60
2019-05-09T10:11:37.643Z,1.20
2019-05-09T10:12:43.568Z,2.20
2019-05-09T10:13:38.626Z,0.90
2019-05-09T10:14:37.613Z,0.60
2019-05-09T10:15:38.426Z,1.70
2019-05-09T10:16:39.035Z,1.00
2019-05-09T10:17:38.662Z,0.50
2019-05-09T10:18:38.228Z,0.40
2019-05-09T10:19:38.361Z,0.50
2019-05-09T10:20:38.530Z,0.80
2019-05-09T10:21:38.229Z,0.40
2019-05-09T10:22:44.579Z,0.90
2019-05-09T10:23:38.505Z,1.90
2019-05-09T10:24:37.501Z,1.50
2019-05-09T10:25:38.259Z,0.40
2019-05-09T10:26:39.007Z,0.50
2019-05-09T10:27:38.749Z,0.40
2019-05-09T10:28:38.080Z,0.40
2019-05-09T10:29:38.746Z,0.50
2019-05-09T10:30:38.300Z,1.10
2019-05-09T10:31:39.158Z,0.40
2019-05-09T10:32:38.391Z,0.80
2019-05-09T10:33:37.654Z,0.40
2019-05-09T10:34:37.892Z,0.50
2019-05-09T10:35:39.261Z,0.70
2019-05-09T10:36:38.512Z,0.70
2019-05-09T10:37:39.245Z,0.40
2019-05-09T10:38:48.018Z,0.50
2019-05-09T10:39:38.085Z,0.50
2019-05-09T10:40:39.780Z,1.10
2019-05-09T10:41:37.682Z,0.80
2019-05-09T10:42:38.038Z,0.30
2019-05-09T10:43:39.041Z,0.50
2019-05-09T10:44:37.523Z,0.60
2019-05-09T10:45:40.860Z,1.50
2019-05-09T10:46:52.125Z,0.40
2019-05-09T10:47:38.241Z,1.00
2019-05-09T10:48:38.615Z,0.40
2019-05-09T10:49:37.924Z,0.50
2019-05-09T10:50:44.685Z,0.50
2019-05-09T10:51:38.203Z,0.40
2019-05-09T10:52:37.193Z,0.50
2019-05-09T10:53:37.181Z,0.50
2019-05-09T10:54:37.167Z,0.50
2019-05-09T10:55:38.501Z,0.70
2019-05-09T10:56:38.423Z,1.70
2019-05-09T10:57:41.736Z,1.00
2019-05-09T10:58:38.118Z,0.60
2019-05-09T10:59:37.697Z,3.30
2019-05-09T11:00:39.215Z,1.90
2019-05-09T11:01:38.198Z,0.60
2019-05-09T11:02:37.079Z,0.50
2019-05-09T11:03:37.675Z,1.70
2019-05-09T11:04:38.767Z,0.80
2019-05-09T11:05:37.049Z,0.50
2019-05-09T11:06:38.188Z,0.60
2019-05-09T11:07:38.125Z,0.90
2019-05-09T11:08:38.108Z,0.60
2019-05-09T11:09:48.035Z,0.60
2019-05-09T11:10:39.590Z,0.70
2019-05-09T11:11:37.096Z,0.60
2019-05-09T11:12:36.965Z,0.60
2019-05-09T11:13:38.983Z,0.40
2019-05-09T11:14:37.730Z,1.90
2019-05-09T11:15:37.557Z,0.60
2019-05-09T11:16:45.488Z,0.40
2019-05-09T11:17:38.995Z,0.90
2019-05-09T11:18:36.902Z,0.60
2019-05-09T11:19:36.923Z,0.60
2019-05-09T11:20:36.874Z,0.50
2019-05-09T11:21:39.129Z,0.60
2019-05-09T11:22:38.627Z,0.50
2019-05-09T11:23:39.164Z,0.50
2019-05-09T11:24:43.040Z,0.50
2019-05-09T11:25:38.157Z,0.60
2019-05-09T11:26:39.554Z,0.50
2019-05-09T11:27:38.889Z,0.50
2019-05-09T11:28:36.788Z,0.50
2019-05-09T11:29:38.852Z,0.50
2019-05-09T11:30:38.644Z,0.60
2019-05-09T11:31:38.479Z,0.60
2019-05-09T11:32:38.579Z,1.70
2019-05-09T11:33:38.568Z,0.50
2019-05-09T11:34:37.548Z,0.50
2019-05-09T11:35:37.992Z,0.60
2019-05-09T11:36:37.885Z,0.70
2019-05-09T11:37:38.371Z,0.70
2019-05-09T11:38:43.130Z,0.50
2019-05-09T11:39:42.004Z,0.50
2019-05-09T11:40:48.310Z,1.20
2019-05-09T11:41:38.391Z,0.50
2019-05-09T11:42:38.145Z,0.70
2019-05-09T11:43:38.929Z,0.60
2019-05-09T11:44:38.494Z,0.60
2019-05-09T11:45:38.734Z,0.50
2019-05-09T11:46:38.205Z,0.50
2019-05-09T11:47:45.504Z,0.50
2019-05-09T11:48:38.239Z,0.40
2019-05-09T11:49:38.905Z,0.40
2019-05-09T11:50:38.673Z,0.50
2019-05-09T11:51:36.565Z,0.50
2019-05-09T11:52:38.317Z,0.60
2019-05-09T11:53:36.514Z,0.50
2019-05-09T11:54:38.711Z,0.50
2019-05-09T11:55:42.640Z,0.50
2019-05-09T11:56:38.458Z,0.40
2019-05-09T11:57:38.477Z,0.50
2019-05-09T11:58:37.965Z,0.50
2019-05-09T11:59:37.981Z,0.50
2019-05-09T12:00:38.159Z,0.50
2019-05-09T12:01:39.432Z,0.50
2019-05-09T12:02:38.578Z,0.50
2019-05-09T12:03:38.715Z,0.60
2019-05-09T12:04:37.991Z,0.60
2019-05-09T12:05:37.928Z,0.50
2019-05-09T12:06:38.303Z,0.50
2019-05-09T12:07:37.941Z,0.40
2019-05-09T12:08:38.579Z,0.40
2019-05-09T12:09:38.544Z,0.60
2019-05-09T12:10:38.225Z,0.50
2019-05-09T12:11:48.505Z,0.80
2019-05-09T12:12:38.821Z,0.40
2019-05-09T12:13:37.987Z,0.60
2019-05-09T12:14:38.201Z,0.50
2019-05-09T12:15:38.800Z,0.50
2019-05-09T12:16:38.100Z,0.50
2019-05-09T12:17:50.924Z,0.60
2019-05-09T12:18:37.877Z,0.40
2019-05-09T12:19:38.060Z,0.50
2019-05-09T12:20:37.527Z,0.70
2019-05-09T12:21:44.797Z,1.10
2019-05-09T12:22:37.180Z,0.40
2019-05-09T12:23:37.805Z,0.90
2019-05-09T12:24:38.468Z,0.80
2019-05-09T12:25:38.453Z,0.40
2019-05-09T12:26:38.809Z,1.40
2019-05-09T12:27:36.127Z,0.50
2019-05-09T12:28:38.650Z,0.60
2019-05-09T12:29:38.533Z,0.50
2019-05-09T12:30:37.991Z,0.70
2019-05-09T12:31:38.409Z,0.50
2019-05-09T12:32:38.330Z,0.50
2019-05-09T12:33:36.060Z,0.70
2019-05-09T12:34:36.050Z,0.50
2019-05-09T12:35:38.537Z,0.50
2019-05-09T12:36:39.506Z,1.10
2019-05-09T12:37:37.825Z,0.50
2019-05-09T12:38:38.803Z,0.50
2019-05-09T12:39:37.832Z,0.40
2019-05-09T12:40:38.691Z,0.50
2019-05-09T12:41:38.474Z,0.50
2019-05-09T12:42:49.613Z,0.60
2019-05-09T12:43:38.205Z,0.50
2019-05-09T12:44:35.942Z,0.50
2019-05-09T12:45:38.282Z,0.50
2019-05-09T12:46:39.107Z,0.50
2019-05-09T12:47:39.381Z,0.50
2019-05-09T12:48:35.894Z,0.70
2019-05-09T12:49:38.485Z,0.50
2019-05-09T12:50:35.867Z,0.40
2019-05-09T12:51:37.650Z,0.60
2019-05-09T12:52:35.890Z,0.50
2019-05-09T12:53:35.838Z,1.20
2019-05-09T12:54:38.503Z,0.90
2019-05-09T12:55:38.299Z,0.50
2019-05-09T12:56:38.326Z,0.60
2019-05-09T12:57:38.447Z,0.70
2019-05-09T12:58:35.879Z,1.10
2019-05-09T12:59:46.383Z,0.60
2019-05-09T13:00:38.435Z,0.50
2019-05-09T13:01:39.851Z,0.50
2019-05-09T13:02:38.750Z,0.50
2019-05-09T13:03:38.030Z,0.60
2019-05-09T13:04:38.078Z,0.50
2019-05-09T13:05:35.705Z,0.40
2019-05-09T13:06:38.048Z,0.50
2019-05-09T13:07:37.743Z,0.60
2019-05-09T13:08:35.670Z,0.80
2019-05-09T13:09:35.688Z,0.60
2019-05-09T13:10:37.747Z,0.50
2019-05-09T13:11:35.642Z,0.50
2019-05-09T13:12:38.568Z,0.60
2019-05-09T13:13:47.991Z,0.50
2019-05-09T13:14:37.865Z,0.50
2019-05-09T13:15:38.249Z,0.50
2019-05-09T13:16:47.631Z,0.50
2019-05-09T13:17:38.433Z,0.40
2019-05-09T13:18:37.567Z,0.60